sensor_id;sensor_type;location;lat;lon;timestamp;P1;durP1;ratioP1;P2;durP2;ratioP2
64282;SDS011;50497;50.720;-2.084;2023-08-21T00:00:28;0.38;;;0.38;;
64282;SDS011;50497;50.720;-2.084;2023-08-21T00:02:53;0.10;;;0.10;;
64282;SDS011;50497;50.720;-2.084;2023-08-21T00:05:18;0.00;;;0.00;;
64282;SDS011;50497;50.720;-2.084;2023-08-21T00:07:43;0.08;;;0.08;;
64282;SDS011;50497;50.720;-2.084;2023-08-21T00:10:10;0.10;;;0.10;;
64282;SDS011;50497;50.720;-2.084;2023-08-21T00:12:37;0.10;;;0.10;;
64282;SDS011;50497;50.720;-2.084;2023-08-21T00:15:03;0.03;;;0.03;;
64282;SDS011;50497;50.720;-2.084;2023-08-21T00:17:29;0.10;;;0.10;;
64282;SDS011;50497;50.720;-2.084;2023-08-21T00:19:54;0.03;;;0.03;;
64282;SDS011;50497;50.720;-2.084;2023-08-21T00:22:19;0.00;;;0.00;;
64282;SDS011;50497;50.720;-2.084;2023-08-21T00:24:45;0.20;;;0.20;;
64282;SDS011;50497;50.720;-2.084;2023-08-21T00:27:10;0.25;;;0.25;;
64282;SDS011;50497;50.720;-2.084;2023-08-21T00:29:35;0.30;;;0.30;;
64282;SDS011;50497;50.720;-2.084;2023-08-21T00:32:01;0.20;;;0.20;;
64282;SDS011;50497;50.720;-2.084;2023-08-21T00:34:26;1.08;;;0.50;;
64282;SDS011;50497;50.720;-2.084;2023-08-21T00:36:51;0.28;;;0.28;;
64282;SDS011;50497;50.720;-2.084;2023-08-21T00:39:17;0.47;;;0.47;;
64282;SDS011;50497;50.720;-2.084;2023-08-21T00:41:42;0.50;;;0.50;;
64282;SDS011;50497;50.720;-2.084;2023-08-21T00:44:08;0.50;;;0.50;;
64282;SDS011;50497;50.720;-2.084;2023-08-21T00:46:33;1.33;;;0.60;;
64282;SDS011;50497;50.720;-2.084;2023-08-21T00:48:59;0.50;;;0.50;;
64282;SDS011;50497;50.720;-2.084;2023-08-21T00:51:24;0.85;;;0.52;;
64282;SDS011;50497;50.720;-2.084;2023-08-21T00:53:50;1.02;;;0.70;;
64282;SDS011;50497;50.720;-2.084;2023-08-21T00:56:15;1.60;;;0.85;;
64282;SDS011;50497;50.720;-2.084;2023-08-21T00:58:41;1.40;;;0.85;;
64282;SDS011;50497;50.720;-2.084;2023-08-21T01:01:07;2.58;;;1.00;;
64282;SDS011;50497;50.720;-2.084;2023-08-21T01:03:32;3.78;;;1.40;;
64282;SDS011;50497;50.720;-2.084;2023-08-21T01:05:58;3.05;;;1.20;;
64282;SDS011;50497;50.720;-2.084;2023-08-21T01:08:26;1.85;;;0.95;;
64282;SDS011;50497;50.720;-2.084;2023-08-21T01:11:06;3.85;;;1.40;;
64282;SDS011;50497;50.720;-2.084;2023-08-21T01:16:14;3.63;;;1.23;;
64282;SDS011;50497;50.720;-2.084;2023-08-21T01:18:41;3.65;;;1.30;;
64282;SDS011;50497;50.720;-2.084;2023-08-21T01:21:08;3.67;;;1.10;;
64282;SDS011;50497;50.720;-2.084;2023-08-21T01:23:37;2.72;;;1.30;;
64282;SDS011;50497;50.720;-2.084;2023-08-21T01:26:03;3.03;;;1.40;;
64282;SDS011;50497;50.720;-2.084;2023-08-21T01:28:29;3.63;;;1.25;;
64282;SDS011;50497;50.720;-2.084;2023-08-21T01:31:07;3.33;;;1.20;;
64282;SDS011;50497;50.720;-2.084;2023-08-21T01:33:40;1.65;;;0.90;;
64282;SDS011;50497;50.720;-2.084;2023-08-21T01:36:09;2.22;;;1.20;;
64282;SDS011;50497;50.720;-2.084;2023-08-21T01:38:35;3.05;;;1.30;;
64282;SDS011;50497;50.720;-2.084;2023-08-21T01:41:01;4.10;;;1.42;;
64282;SDS011;50497;50.720;-2.084;2023-08-21T01:43:27;2.55;;;1.13;;
64282;SDS011;50497;50.720;-2.084;2023-08-21T01:45:53;3.65;;;1.38;;
64282;SDS011;50497;50.720;-2.084;2023-08-21T01:48:18;2.75;;;1.25;;
64282;SDS011;50497;50.720;-2.084;2023-08-21T01:50:44;3.63;;;1.30;;
64282;SDS011;50497;50.720;-2.084;2023-08-21T01:53:09;1.45;;;0.65;;
64282;SDS011;50497;50.720;-2.084;2023-08-21T01:55:34;3.33;;;1.50;;
64282;SDS011;50497;50.720;-2.084;2023-08-21T01:58:00;1.80;;;1.02;;
64282;SDS011;50497;50.720;-2.084;2023-08-21T02:00:25;1.85;;;1.00;;
64282;SDS011;50497;50.720;-2.084;2023-08-21T02:02:50;2.55;;;1.40;;
64282;SDS011;50497;50.720;-2.084;2023-08-21T02:05:16;0.50;;;0.43;;
64282;SDS011;50497;50.720;-2.084;2023-08-21T02:07:41;1.38;;;1.20;;
64282;SDS011;50497;50.720;-2.084;2023-08-21T02:10:06;1.25;;;0.52;;
64282;SDS011;50497;50.720;-2.084;2023-08-21T02:12:32;2.20;;;1.10;;
64282;SDS011;50497;50.720;-2.084;2023-08-21T02:14:58;1.02;;;0.47;;
64282;SDS011;50497;50.720;-2.084;2023-08-21T02:17:26;0.00;;;0.00;;
64282;SDS011;50497;50.720;-2.084;2023-08-21T02:19:51;0.00;;;0.00;;
64282;SDS011;50497;50.720;-2.084;2023-08-21T02:22:17;0.00;;;0.00;;
64282;SDS011;50497;50.720;-2.084;2023-08-21T02:24:42;0.00;;;0.00;;
64282;SDS011;50497;50.720;-2.084;2023-08-21T02:27:08;0.05;;;0.05;;
64282;SDS011;50497;50.720;-2.084;2023-08-21T02:29:33;0.88;;;0.60;;
64282;SDS011;50497;50.720;-2.084;2023-08-21T02:31:58;0.00;;;0.00;;
64282;SDS011;50497;50.720;-2.084;2023-08-21T02:34:24;0.00;;;0.00;;
64282;SDS011;50497;50.720;-2.084;2023-08-21T02:36:49;0.00;;;0.00;;
64282;SDS011;50497;50.720;-2.084;2023-08-21T02:39:14;0.00;;;0.00;;
64282;SDS011;50497;50.720;-2.084;2023-08-21T02:41:40;0.20;;;0.20;;
64282;SDS011;50497;50.720;-2.084;2023-08-21T02:44:05;0.10;;;0.10;;
64282;SDS011;50497;50.720;-2.084;2023-08-21T02:46:31;0.30;;;0.30;;
64282;SDS011;50497;50.720;-2.084;2023-08-21T02:48:58;0.20;;;0.20;;
64282;SDS011;50497;50.720;-2.084;2023-08-21T02:51:23;0.10;;;0.10;;
64282;SDS011;50497;50.720;-2.084;2023-08-21T02:53:49;0.00;;;0.00;;
64282;SDS011;50497;50.720;-2.084;2023-08-21T02:56:14;0.00;;;0.00;;
64282;SDS011;50497;50.720;-2.084;2023-08-21T02:58:39;0.10;;;0.10;;
64282;SDS011;50497;50.720;-2.084;2023-08-21T03:01:05;0.28;;;0.28;;
64282;SDS011;50497;50.720;-2.084;2023-08-21T03:03:30;0.10;;;0.10;;
64282;SDS011;50497;50.720;-2.084;2023-08-21T03:05:57;0.30;;;0.30;;
64282;SDS011;50497;50.720;-2.084;2023-08-21T03:08:22;0.32;;;0.32;;
64282;SDS011;50497;50.720;-2.084;2023-08-21T03:10:48;0.47;;;0.40;;
64282;SDS011;50497;50.720;-2.084;2023-08-21T03:13:13;0.20;;;0.20;;
64282;SDS011;50497;50.720;-2.084;2023-08-21T03:15:38;0.10;;;0.10;;
64282;SDS011;50497;50.720;-2.084;2023-08-21T03:18:04;0.00;;;0.00;;
64282;SDS011;50497;50.720;-2.084;2023-08-21T03:20:29;0.00;;;0.00;;
64282;SDS011;50497;50.720;-2.084;2023-08-21T03:22:55;0.00;;;0.00;;
64282;SDS011;50497;50.720;-2.084;2023-08-21T03:25:20;0.10;;;0.10;;
64282;SDS011;50497;50.720;-2.084;2023-08-21T03:27:45;0.00;;;0.00;;
64282;SDS011;50497;50.720;-2.084;2023-08-21T03:30:14;0.00;;;0.00;;
64282;SDS011;50497;50.720;-2.084;2023-08-21T03:32:40;0.10;;;0.10;;
64282;SDS011;50497;50.720;-2.084;2023-08-21T03:35:05;0.00;;;0.00;;
64282;SDS011;50497;50.720;-2.084;2023-08-21T03:37:31;0.15;;;0.15;;
64282;SDS011;50497;50.720;-2.084;2023-08-21T03:39:56;0.20;;;0.20;;
64282;SDS011;50497;50.720;-2.084;2023-08-21T03:42:22;0.05;;;0.05;;
64282;SDS011;50497;50.720;-2.084;2023-08-21T03:44:47;0.13;;;0.13;;
64282;SDS011;50497;50.720;-2.084;2023-08-21T03:47:15;0.00;;;0.00;;
64282;SDS011;50497;50.720;-2.084;2023-08-21T03:49:41;0.13;;;0.13;;
64282;SDS011;50497;50.720;-2.084;2023-08-21T03:52:06;0.20;;;0.20;;
64282;SDS011;50497;50.720;-2.084;2023-08-21T03:54:31;0.20;;;0.20;;
64282;SDS011;50497;50.720;-2.084;2023-08-21T03:56:57;0.28;;;0.20;;
64282;SDS011;50497;50.720;-2.084;2023-08-21T03:59:22;0.10;;;0.10;;
64282;SDS011;50497;50.720;-2.084;2023-08-21T04:01:48;0.20;;;0.20;;
64282;SDS011;50497;50.720;-2.084;2023-08-21T04:04:14;0.20;;;0.20;;
64282;SDS011;50497;50.720;-2.084;2023-08-21T04:06:39;0.10;;;0.10;;
64282;SDS011;50497;50.720;-2.084;2023-08-21T04:09:05;0.35;;;0.30;;
64282;SDS011;50497;50.720;-2.084;2023-08-21T04:11:31;0.17;;;0.17;;
64282;SDS011;50497;50.720;-2.084;2023-08-21T04:13:58;0.00;;;0.00;;
64282;SDS011;50497;50.720;-2.084;2023-08-21T04:16:24;0.00;;;0.00;;
64282;SDS011;50497;50.720;-2.084;2023-08-21T04:18:49;0.00;;;0.00;;
64282;SDS011;50497;50.720;-2.084;2023-08-21T04:21:15;0.00;;;0.00;;
64282;SDS011;50497;50.720;-2.084;2023-08-21T04:23:40;0.00;;;0.00;;
64282;SDS011;50497;50.720;-2.084;2023-08-21T04:26:05;0.05;;;0.05;;
64282;SDS011;50497;50.720;-2.084;2023-08-21T04:28:33;0.00;;;0.00;;
64282;SDS011;50497;50.720;-2.084;2023-08-21T04:30:58;0.00;;;0.00;;
64282;SDS011;50497;50.720;-2.084;2023-08-21T04:33:25;0.00;;;0.00;;
64282;SDS011;50497;50.720;-2.084;2023-08-21T04:35:51;0.00;;;0.00;;
64282;SDS011;50497;50.720;-2.084;2023-08-21T04:38:17;0.00;;;0.00;;
64282;SDS011;50497;50.720;-2.084;2023-08-21T04:40:42;0.00;;;0.00;;
64282;SDS011;50497;50.720;-2.084;2023-08-21T04:43:08;0.00;;;0.00;;
64282;SDS011;50497;50.720;-2.084;2023-08-21T04:45:33;0.00;;;0.00;;
64282;SDS011;50497;50.720;-2.084;2023-08-21T04:47:58;0.00;;;0.00;;
64282;SDS011;50497;50.720;-2.084;2023-08-21T04:50:23;0.00;;;0.00;;
64282;SDS011;50497;50.720;-2.084;2023-08-21T04:52:49;0.00;;;0.00;;
64282;SDS011;50497;50.720;-2.084;2023-08-21T04:55:15;0.00;;;0.00;;
64282;SDS011;50497;50.720;-2.084;2023-08-21T04:57:41;0.00;;;0.00;;
64282;SDS011;50497;50.720;-2.084;2023-08-21T05:00:06;0.00;;;0.00;;
64282;SDS011;50497;50.720;-2.084;2023-08-21T05:02:33;0.00;;;0.00;;
64282;SDS011;50497;50.720;-2.084;2023-08-21T05:04:58;0.00;;;0.00;;
64282;SDS011;50497;50.720;-2.084;2023-08-21T05:07:24;0.00;;;0.00;;
64282;SDS011;50497;50.720;-2.084;2023-08-21T05:09:49;0.00;;;0.00;;
64282;SDS011;50497;50.720;-2.084;2023-08-21T05:12:15;0.00;;;0.00;;
64282;SDS011;50497;50.720;-2.084;2023-08-21T05:14:40;0.00;;;0.00;;
64282;SDS011;50497;50.720;-2.084;2023-08-21T05:17:05;0.00;;;0.00;;
64282;SDS011;50497;50.720;-2.084;2023-08-21T05:19:31;0.00;;;0.00;;
64282;SDS011;50497;50.720;-2.084;2023-08-21T05:21:56;0.00;;;0.00;;
64282;SDS011;50497;50.720;-2.084;2023-08-21T05:24:21;0.00;;;0.00;;
64282;SDS011;50497;50.720;-2.084;2023-08-21T05:26:47;0.00;;;0.00;;
64282;SDS011;50497;50.720;-2.084;2023-08-21T05:29:12;0.00;;;0.00;;
64282;SDS011;50497;50.720;-2.084;2023-08-21T05:31:37;0.00;;;0.00;;
64282;SDS011;50497;50.720;-2.084;2023-08-21T05:34:03;0.00;;;0.00;;
64282;SDS011;50497;50.720;-2.084;2023-08-21T05:36:28;0.00;;;0.00;;
64282;SDS011;50497;50.720;-2.084;2023-08-21T05:38:56;0.00;;;0.00;;
64282;SDS011;50497;50.720;-2.084;2023-08-21T05:41:21;0.00;;;0.00;;
64282;SDS011;50497;50.720;-2.084;2023-08-21T05:43:47;0.00;;;0.00;;
64282;SDS011;50497;50.720;-2.084;2023-08-21T05:46:13;0.00;;;0.00;;
64282;SDS011;50497;50.720;-2.084;2023-08-21T05:48:39;0.00;;;0.00;;
64282;SDS011;50497;50.720;-2.084;2023-08-21T05:51:04;0.00;;;0.00;;
64282;SDS011;50497;50.720;-2.084;2023-08-21T05:53:30;0.00;;;0.00;;
64282;SDS011;50497;50.720;-2.084;2023-08-21T05:55:55;0.00;;;0.00;;
64282;SDS011;50497;50.720;-2.084;2023-08-21T05:58:21;0.00;;;0.00;;
64282;SDS011;50497;50.720;-2.084;2023-08-21T06:00:48;0.00;;;0.00;;
64282;SDS011;50497;50.720;-2.084;2023-08-21T06:03:13;0.00;;;0.00;;
64282;SDS011;50497;50.720;-2.084;2023-08-21T06:05:38;0.00;;;0.00;;
64282;SDS011;50497;50.720;-2.084;2023-08-21T06:08:04;0.00;;;0.00;;
64282;SDS011;50497;50.720;-2.084;2023-08-21T06:10:30;0.00;;;0.00;;
64282;SDS011;50497;50.720;-2.084;2023-08-21T06:12:56;0.00;;;0.00;;
64282;SDS011;50497;50.720;-2.084;2023-08-21T06:15:22;0.00;;;0.00;;
64282;SDS011;50497;50.720;-2.084;2023-08-21T06:17:47;0.00;;;0.00;;
64282;SDS011;50497;50.720;-2.084;2023-08-21T06:20:12;0.00;;;0.00;;
64282;SDS011;50497;50.720;-2.084;2023-08-21T06:25:04;0.00;;;0.00;;
64282;SDS011;50497;50.720;-2.084;2023-08-21T06:27:29;0.00;;;0.00;;
64282;SDS011;50497;50.720;-2.084;2023-08-21T06:29:55;0.00;;;0.00;;
64282;SDS011;50497;50.720;-2.084;2023-08-21T06:32:21;0.00;;;0.00;;
64282;SDS011;50497;50.720;-2.084;2023-08-21T06:34:46;0.00;;;0.00;;
64282;SDS011;50497;50.720;-2.084;2023-08-21T06:37:12;0.00;;;0.00;;
64282;SDS011;50497;50.720;-2.084;2023-08-21T06:39:37;0.00;;;0.00;;
64282;SDS011;50497;50.720;-2.084;2023-08-21T06:42:03;0.00;;;0.00;;
64282;SDS011;50497;50.720;-2.084;2023-08-21T06:44:29;0.00;;;0.00;;
64282;SDS011;50497;50.720;-2.084;2023-08-21T06:46:54;0.00;;;0.00;;
64282;SDS011;50497;50.720;-2.084;2023-08-21T06:49:19;0.00;;;0.00;;
64282;SDS011;50497;50.720;-2.084;2023-08-21T06:51:45;0.00;;;0.00;;
64282;SDS011;50497;50.720;-2.084;2023-08-21T06:54:10;0.00;;;0.00;;
64282;SDS011;50497;50.720;-2.084;2023-08-21T06:56:36;0.00;;;0.00;;
64282;SDS011;50497;50.720;-2.084;2023-08-21T06:59:01;0.00;;;0.00;;
64282;SDS011;50497;50.720;-2.084;2023-08-21T07:01:27;0.00;;;0.00;;
64282;SDS011;50497;50.720;-2.084;2023-08-21T07:03:53;0.00;;;0.00;;
64282;SDS011;50497;50.720;-2.084;2023-08-21T07:06:18;0.00;;;0.00;;
64282;SDS011;50497;50.720;-2.084;2023-08-21T07:08:44;0.00;;;0.00;;
64282;SDS011;50497;50.720;-2.084;2023-08-21T07:11:09;0.00;;;0.00;;
64282;SDS011;50497;50.720;-2.084;2023-08-21T07:13:35;0.00;;;0.00;;
64282;SDS011;50497;50.720;-2.084;2023-08-21T07:18:33;0.00;;;0.00;;
64282;SDS011;50497;50.720;-2.084;2023-08-21T07:20:59;0.00;;;0.00;;
64282;SDS011;50497;50.720;-2.084;2023-08-21T07:23:25;0.00;;;0.00;;
64282;SDS011;50497;50.720;-2.084;2023-08-21T07:25:50;0.00;;;0.00;;
64282;SDS011;50497;50.720;-2.084;2023-08-21T07:28:16;0.00;;;0.00;;
64282;SDS011;50497;50.720;-2.084;2023-08-21T07:30:41;0.00;;;0.00;;
64282;SDS011;50497;50.720;-2.084;2023-08-21T07:33:07;0.00;;;0.00;;
64282;SDS011;50497;50.720;-2.084;2023-08-21T07:35:32;0.00;;;0.00;;
64282;SDS011;50497;50.720;-2.084;2023-08-21T07:37:58;0.00;;;0.00;;
64282;SDS011;50497;50.720;-2.084;2023-08-21T07:40:24;0.00;;;0.00;;
64282;SDS011;50497;50.720;-2.084;2023-08-21T07:42:49;0.00;;;0.00;;
64282;SDS011;50497;50.720;-2.084;2023-08-21T07:47:40;0.00;;;0.00;;
64282;SDS011;50497;50.720;-2.084;2023-08-21T07:50:06;0.00;;;0.00;;
64282;SDS011;50497;50.720;-2.084;2023-08-21T07:52:32;0.00;;;0.00;;
64282;SDS011;50497;50.720;-2.084;2023-08-21T07:54:58;0.00;;;0.00;;
64282;SDS011;50497;50.720;-2.084;2023-08-21T07:57:25;0.00;;;0.00;;
64282;SDS011;50497;50.720;-2.084;2023-08-21T07:59:51;0.00;;;0.00;;
64282;SDS011;50497;50.720;-2.084;2023-08-21T08:02:17;0.00;;;0.00;;
64282;SDS011;50497;50.720;-2.084;2023-08-21T08:04:42;0.00;;;0.00;;
64282;SDS011;50497;50.720;-2.084;2023-08-21T08:07:08;0.00;;;0.00;;
64282;SDS011;50497;50.720;-2.084;2023-08-21T08:09:33;0.00;;;0.00;;
64282;SDS011;50497;50.720;-2.084;2023-08-21T08:11:59;0.00;;;0.00;;
64282;SDS011;50497;50.720;-2.084;2023-08-21T08:14:24;0.00;;;0.00;;
64282;SDS011;50497;50.720;-2.084;2023-08-21T08:16:49;0.00;;;0.00;;
64282;SDS011;50497;50.720;-2.084;2023-08-21T08:19:15;0.00;;;0.00;;
64282;SDS011;50497;50.720;-2.084;2023-08-21T08:21:40;0.00;;;0.00;;
64282;SDS011;50497;50.720;-2.084;2023-08-21T08:24:05;0.00;;;0.00;;
64282;SDS011;50497;50.720;-2.084;2023-08-21T08:26:31;0.00;;;0.00;;
64282;SDS011;50497;50.720;-2.084;2023-08-21T08:28:57;0.00;;;0.00;;
64282;SDS011;50497;50.720;-2.084;2023-08-21T08:33:48;0.00;;;0.00;;
64282;SDS011;50497;50.720;-2.084;2023-08-21T08:36:14;0.00;;;0.00;;
64282;SDS011;50497;50.720;-2.084;2023-08-21T08:38:39;0.00;;;0.00;;
64282;SDS011;50497;50.720;-2.084;2023-08-21T08:41:10;0.00;;;0.00;;
64282;SDS011;50497;50.720;-2.084;2023-08-21T08:43:40;0.00;;;0.00;;
64282;SDS011;50497;50.720;-2.084;2023-08-21T08:46:06;0.00;;;0.00;;
64282;SDS011;50497;50.720;-2.084;2023-08-21T08:48:33;0.00;;;0.00;;
64282;SDS011;50497;50.720;-2.084;2023-08-21T08:50:59;0.00;;;0.00;;
64282;SDS011;50497;50.720;-2.084;2023-08-21T08:53:27;0.00;;;0.00;;
64282;SDS011;50497;50.720;-2.084;2023-08-21T08:55:53;0.00;;;0.00;;
64282;SDS011;50497;50.720;-2.084;2023-08-21T08:58:18;0.00;;;0.00;;
64282;SDS011;50497;50.720;-2.084;2023-08-21T09:00:43;0.00;;;0.00;;
64282;SDS011;50497;50.720;-2.084;2023-08-21T09:03:09;0.00;;;0.00;;
64282;SDS011;50497;50.720;-2.084;2023-08-21T09:05:36;0.00;;;0.00;;
64282;SDS011;50497;50.720;-2.084;2023-08-21T09:10:33;0.00;;;0.00;;
64282;SDS011;50497;50.720;-2.084;2023-08-21T09:13:00;0.00;;;0.00;;
64282;SDS011;50497;50.720;-2.084;2023-08-21T09:17:55;0.00;;;0.00;;
64282;SDS011;50497;50.720;-2.084;2023-08-21T09:22:52;0.00;;;0.00;;
64282;SDS011;50497;50.720;-2.084;2023-08-21T09:25:19;0.00;;;0.00;;
64282;SDS011;50497;50.720;-2.084;2023-08-21T09:30:10;0.00;;;0.00;;
64282;SDS011;50497;50.720;-2.084;2023-08-21T09:32:55;0.00;;;0.00;;
64282;SDS011;50497;50.720;-2.084;2023-08-21T09:35:23;0.00;;;0.00;;
64282;SDS011;50497;50.720;-2.084;2023-08-21T09:37:49;0.00;;;0.00;;
64282;SDS011;50497;50.720;-2.084;2023-08-21T09:40:17;0.00;;;0.00;;
64282;SDS011;50497;50.720;-2.084;2023-08-21T09:45:08;0.00;;;0.00;;
64282;SDS011;50497;50.720;-2.084;2023-08-21T09:50:01;0.00;;;0.00;;
64282;SDS011;50497;50.720;-2.084;2023-08-21T09:52:28;0.00;;;0.00;;
64282;SDS011;50497;50.720;-2.084;2023-08-21T09:57:20;0.00;;;0.00;;
64282;SDS011;50497;50.720;-2.084;2023-08-21T09:59:48;0.00;;;0.00;;
64282;SDS011;50497;50.720;-2.084;2023-08-21T10:02:17;0.00;;;0.00;;
64282;SDS011;50497;50.720;-2.084;2023-08-21T10:07:10;0.00;;;0.00;;
64282;SDS011;50497;50.720;-2.084;2023-08-21T10:09:38;0.00;;;0.00;;
64282;SDS011;50497;50.720;-2.084;2023-08-21T10:12:06;0.00;;;0.00;;
64282;SDS011;50497;50.720;-2.084;2023-08-21T10:14:34;0.00;;;0.00;;
64282;SDS011;50497;50.720;-2.084;2023-08-21T10:17:01;0.00;;;0.00;;
64282;SDS011;50497;50.720;-2.084;2023-08-21T10:21:57;0.00;;;0.00;;
64282;SDS011;50497;50.720;-2.084;2023-08-21T10:24:42;0.00;;;0.00;;
64282;SDS011;50497;50.720;-2.084;2023-08-21T10:27:07;0.00;;;0.00;;
64282;SDS011;50497;50.720;-2.084;2023-08-21T10:31:59;0.00;;;0.00;;
64282;SDS011;50497;50.720;-2.084;2023-08-21T10:34:35;0.00;;;0.00;;
64282;SDS011;50497;50.720;-2.084;2023-08-21T10:37:03;0.00;;;0.00;;
64282;SDS011;50497;50.720;-2.084;2023-08-21T10:39:32;0.00;;;0.00;;
64282;SDS011;50497;50.720;-2.084;2023-08-21T10:42:01;0.00;;;0.00;;
64282;SDS011;50497;50.720;-2.084;2023-08-21T10:47:13;0.00;;;0.00;;
64282;SDS011;50497;50.720;-2.084;2023-08-21T10:50:00;0.00;;;0.00;;
64282;SDS011;50497;50.720;-2.084;2023-08-21T10:52:34;0.00;;;0.00;;
64282;SDS011;50497;50.720;-2.084;2023-08-21T10:55:08;0.00;;;0.00;;
64282;SDS011;50497;50.720;-2.084;2023-08-21T10:57:34;0.00;;;0.00;;
64282;SDS011;50497;50.720;-2.084;2023-08-21T11:00:04;0.00;;;0.00;;
64282;SDS011;50497;50.720;-2.084;2023-08-21T11:02:40;0.00;;;0.00;;
64282;SDS011;50497;50.720;-2.084;2023-08-21T11:05:07;0.00;;;0.00;;
64282;SDS011;50497;50.720;-2.084;2023-08-21T11:07:37;0.00;;;0.00;;
64282;SDS011;50497;50.720;-2.084;2023-08-21T11:10:05;0.00;;;0.00;;
64282;SDS011;50497;50.720;-2.084;2023-08-21T11:12:32;0.00;;;0.00;;
64282;SDS011;50497;50.720;-2.084;2023-08-21T11:17:23;0.00;;;0.00;;
64282;SDS011;50497;50.720;-2.084;2023-08-21T11:19:48;0.00;;;0.00;;
64282;SDS011;50497;50.720;-2.084;2023-08-21T11:22:15;0.00;;;0.00;;
64282;SDS011;50497;50.720;-2.084;2023-08-21T11:27:10;0.00;;;0.00;;
64282;SDS011;50497;50.720;-2.084;2023-08-21T11:29:47;0.00;;;0.00;;
64282;SDS011;50497;50.720;-2.084;2023-08-21T11:32:15;0.00;;;0.00;;
64282;SDS011;50497;50.720;-2.084;2023-08-21T11:34:42;0.00;;;0.00;;
64282;SDS011;50497;50.720;-2.084;2023-08-21T11:37:22;0.00;;;0.00;;
64282;SDS011;50497;50.720;-2.084;2023-08-21T11:39:52;0.00;;;0.00;;
64282;SDS011;50497;50.720;-2.084;2023-08-21T11:42:19;0.00;;;0.00;;
64282;SDS011;50497;50.720;-2.084;2023-08-21T11:44:49;0.00;;;0.00;;
64282;SDS011;50497;50.720;-2.084;2023-08-21T11:47:17;0.00;;;0.00;;
64282;SDS011;50497;50.720;-2.084;2023-08-21T11:49:44;0.00;;;0.00;;
64282;SDS011;50497;50.720;-2.084;2023-08-21T11:52:12;0.00;;;0.00;;
64282;SDS011;50497;50.720;-2.084;2023-08-21T11:54:39;0.00;;;0.00;;
64282;SDS011;50497;50.720;-2.084;2023-08-21T11:57:08;0.00;;;0.00;;
64282;SDS011;50497;50.720;-2.084;2023-08-21T11:59:36;0.00;;;0.00;;
64282;SDS011;50497;50.720;-2.084;2023-08-21T12:04:33;0.00;;;0.00;;
64282;SDS011;50497;50.720;-2.084;2023-08-21T12:06:58;0.00;;;0.00;;
64282;SDS011;50497;50.720;-2.084;2023-08-21T12:11:49;0.00;;;0.00;;
64282;SDS011;50497;50.720;-2.084;2023-08-21T12:16:39;0.00;;;0.00;;
64282;SDS011;50497;50.720;-2.084;2023-08-21T12:21:34;0.00;;;0.00;;
64282;SDS011;50497;50.720;-2.084;2023-08-21T12:24:02;0.00;;;0.00;;
64282;SDS011;50497;50.720;-2.084;2023-08-21T12:26:29;0.00;;;0.00;;
64282;SDS011;50497;50.720;-2.084;2023-08-21T12:31:20;0.00;;;0.00;;
64282;SDS011;50497;50.720;-2.084;2023-08-21T12:33:48;0.00;;;0.00;;
64282;SDS011;50497;50.720;-2.084;2023-08-21T12:38:39;0.00;;;0.00;;
64282;SDS011;50497;50.720;-2.084;2023-08-21T12:43:30;0.00;;;0.00;;
64282;SDS011;50497;50.720;-2.084;2023-08-21T12:48:24;0.00;;;0.00;;
64282;SDS011;50497;50.720;-2.084;2023-08-21T12:53:15;0.00;;;0.00;;
64282;SDS011;50497;50.720;-2.084;2023-08-21T12:58:06;0.00;;;0.00;;
64282;SDS011;50497;50.720;-2.084;2023-08-21T13:03:00;0.00;;;0.00;;
64282;SDS011;50497;50.720;-2.084;2023-08-21T13:07:51;0.00;;;0.00;;
64282;SDS011;50497;50.720;-2.084;2023-08-21T13:10:17;0.00;;;0.00;;
64282;SDS011;50497;50.720;-2.084;2023-08-21T13:15:08;0.00;;;0.00;;
64282;SDS011;50497;50.720;-2.084;2023-08-21T13:17:34;0.00;;;0.00;;
64282;SDS011;50497;50.720;-2.084;2023-08-21T13:20:00;0.00;;;0.00;;
64282;SDS011;50497;50.720;-2.084;2023-08-21T13:22:26;0.00;;;0.00;;
64282;SDS011;50497;50.720;-2.084;2023-08-21T13:27:16;0.00;;;0.00;;
64282;SDS011;50497;50.720;-2.084;2023-08-21T13:32:07;0.00;;;0.00;;
64282;SDS011;50497;50.720;-2.084;2023-08-21T13:36:58;0.00;;;0.00;;
64282;SDS011;50497;50.720;-2.084;2023-08-21T13:41:49;0.00;;;0.00;;
64282;SDS011;50497;50.720;-2.084;2023-08-21T13:44:15;0.00;;;0.00;;
64282;SDS011;50497;50.720;-2.084;2023-08-21T13:49:06;0.00;;;0.00;;
64282;SDS011;50497;50.720;-2.084;2023-08-21T13:51:31;0.10;;;0.10;;
64282;SDS011;50497;50.720;-2.084;2023-08-21T13:56:22;0.10;;;0.10;;
64282;SDS011;50497;50.720;-2.084;2023-08-21T13:58:47;0.10;;;0.10;;
64282;SDS011;50497;50.720;-2.084;2023-08-21T14:01:13;0.08;;;0.08;;
64282;SDS011;50497;50.720;-2.084;2023-08-21T14:03:38;0.00;;;0.00;;
64282;SDS011;50497;50.720;-2.084;2023-08-21T14:06:03;0.00;;;0.00;;
64282;SDS011;50497;50.720;-2.084;2023-08-21T14:08:29;0.00;;;0.00;;
64282;SDS011;50497;50.720;-2.084;2023-08-21T14:10:54;0.00;;;0.00;;
64282;SDS011;50497;50.720;-2.084;2023-08-21T14:13:20;0.00;;;0.00;;
64282;SDS011;50497;50.720;-2.084;2023-08-21T14:15:45;0.00;;;0.00;;
64282;SDS011;50497;50.720;-2.084;2023-08-21T14:18:11;0.10;;;0.10;;
64282;SDS011;50497;50.720;-2.084;2023-08-21T14:20:36;0.00;;;0.00;;
64282;SDS011;50497;50.720;-2.084;2023-08-21T14:23:02;0.00;;;0.00;;
64282;SDS011;50497;50.720;-2.084;2023-08-21T14:25:27;0.00;;;0.00;;
64282;SDS011;50497;50.720;-2.084;2023-08-21T14:27:53;0.00;;;0.00;;
64282;SDS011;50497;50.720;-2.084;2023-08-21T14:30:19;0.00;;;0.00;;
64282;SDS011;50497;50.720;-2.084;2023-08-21T14:32:45;0.00;;;0.00;;
64282;SDS011;50497;50.720;-2.084;2023-08-21T14:35:10;0.03;;;0.03;;
64282;SDS011;50497;50.720;-2.084;2023-08-21T14:37:36;0.00;;;0.00;;
64282;SDS011;50497;50.720;-2.084;2023-08-21T14:40:02;0.00;;;0.00;;
64282;SDS011;50497;50.720;-2.084;2023-08-21T14:42:32;0.00;;;0.00;;
64282;SDS011;50497;50.720;-2.084;2023-08-21T14:44:58;0.00;;;0.00;;
64282;SDS011;50497;50.720;-2.084;2023-08-21T14:47:23;0.00;;;0.00;;
64282;SDS011;50497;50.720;-2.084;2023-08-21T14:49:49;0.00;;;0.00;;
64282;SDS011;50497;50.720;-2.084;2023-08-21T14:52:16;0.00;;;0.00;;
64282;SDS011;50497;50.720;-2.084;2023-08-21T14:54:41;0.00;;;0.00;;
64282;SDS011;50497;50.720;-2.084;2023-08-21T14:57:06;0.00;;;0.00;;
64282;SDS011;50497;50.720;-2.084;2023-08-21T14:59:32;0.00;;;0.00;;
64282;SDS011;50497;50.720;-2.084;2023-08-21T15:01:57;0.00;;;0.00;;
64282;SDS011;50497;50.720;-2.084;2023-08-21T15:06:48;0.00;;;0.00;;
64282;SDS011;50497;50.720;-2.084;2023-08-21T15:11:38;0.00;;;0.00;;
64282;SDS011;50497;50.720;-2.084;2023-08-21T15:14:08;0.00;;;0.00;;
64282;SDS011;50497;50.720;-2.084;2023-08-21T15:16:36;0.00;;;0.00;;
64282;SDS011;50497;50.720;-2.084;2023-08-21T15:19:01;0.00;;;0.00;;
64282;SDS011;50497;50.720;-2.084;2023-08-21T15:21:27;0.00;;;0.00;;
64282;SDS011;50497;50.720;-2.084;2023-08-21T15:23:53;0.00;;;0.00;;
64282;SDS011;50497;50.720;-2.084;2023-08-21T15:26:18;0.00;;;0.00;;
64282;SDS011;50497;50.720;-2.084;2023-08-21T15:28:44;0.00;;;0.00;;
64282;SDS011;50497;50.720;-2.084;2023-08-21T15:31:09;0.00;;;0.00;;
64282;SDS011;50497;50.720;-2.084;2023-08-21T15:36:00;0.00;;;0.00;;
64282;SDS011;50497;50.720;-2.084;2023-08-21T15:40:51;0.00;;;0.00;;
64282;SDS011;50497;50.720;-2.084;2023-08-21T15:43:16;0.00;;;0.00;;
64282;SDS011;50497;50.720;-2.084;2023-08-21T15:45:42;0.00;;;0.00;;
64282;SDS011;50497;50.720;-2.084;2023-08-21T15:48:07;0.00;;;0.00;;
64282;SDS011;50497;50.720;-2.084;2023-08-21T15:50:32;0.00;;;0.00;;
64282;SDS011;50497;50.720;-2.084;2023-08-21T15:55:23;0.00;;;0.00;;
64282;SDS011;50497;50.720;-2.084;2023-08-21T15:57:48;0.00;;;0.00;;
64282;SDS011;50497;50.720;-2.084;2023-08-21T16:00:14;0.00;;;0.00;;
64282;SDS011;50497;50.720;-2.084;2023-08-21T16:02:39;0.00;;;0.00;;
64282;SDS011;50497;50.720;-2.084;2023-08-21T16:05:05;0.00;;;0.00;;
64282;SDS011;50497;50.720;-2.084;2023-08-21T16:07:32;0.00;;;0.00;;
64282;SDS011;50497;50.720;-2.084;2023-08-21T16:09:58;0.00;;;0.00;;